createdAt,value
2022-08-07T00:00:07.253Z,102193.03
2022-08-07T00:02:41.430Z,102192.22
2022-08-07T00:05:14.789Z,102200.97
2022-08-07T00:07:45.079Z,102193.13
2022-08-07T00:10:26.953Z,102200.16
2022-08-07T00:13:00.763Z,102195.78
2022-08-07T00:15:35.889Z,102198.41
2022-08-07T00:18:19.329Z,102184.50
2022-08-07T00:20:50.920Z,102182.75
2022-08-07T00:23:21.922Z,102184.47
2022-08-07T00:26:00.125Z,102184.47
2022-08-07T00:28:33.975Z,102194.97
2022-08-07T00:31:12.638Z,102190.56
2022-08-07T00:33:47.717Z,102187.94
2022-08-07T00:36:18.188Z,102191.44
2022-08-07T00:38:48.345Z,102188.81
2022-08-07T00:41:27.172Z,102189.66
2022-08-07T00:44:00.387Z,102184.44
2022-08-07T00:46:32.983Z,102183.53
2022-08-07T00:49:03.746Z,102180.94
2022-08-07T00:51:57.676Z,102179.22
2022-08-07T00:54:24.509Z,102182.72
2022-08-07T00:56:54.843Z,102181.88
2022-08-07T00:59:35.145Z,102167.09
2022-08-07T01:02:14.075Z,102182.78
2022-08-07T01:05:00.172Z,102181.91
2022-08-07T01:07:31.140Z,102185.41
2022-08-07T01:10:07.235Z,102183.66
2022-08-07T01:12:53.321Z,102172.34
2022-08-07T01:15:36.112Z,102187.19
2022-08-07T01:18:17.168Z,102179.28
2022-08-07T01:21:22.502Z,102183.69
2022-08-07T01:23:54.931Z,102181.94
2022-08-07T01:26:26.009Z,102181.13
2022-08-07T01:28:56.981Z,102182.03
2022-08-07T01:31:41.575Z,102184.59
2022-08-07T01:34:12.624Z,102174.13
2022-08-07T01:36:44.079Z,102180.25
2022-08-07T01:39:15.608Z,102178.56
2022-08-07T01:42:03.676Z,102183.78
2022-08-07T01:44:37.290Z,102186.41
2022-08-07T01:48:16.632Z,102180.31
2022-08-07T01:49:59.258Z,102181.16
2022-08-07T01:52:34.508Z,102180.34
2022-08-07T01:55:06.880Z,102186.50
2022-08-07T01:58:05.692Z,102192.63
2022-08-07T02:00:33.046Z,102185.66
2022-08-07T02:03:32.124Z,102186.50
2022-08-07T02:06:30.794Z,102188.28
2022-08-07T02:09:05.651Z,102193.53
2022-08-07T02:12:02.903Z,102196.16
2022-08-07T02:14:40.787Z,102192.66
2022-08-07T02:17:27.700Z,102195.28
2022-08-07T02:20:09.408Z,102195.28
2022-08-07T02:22:54.915Z,102194.38
2022-08-07T02:26:10.859Z,102186.50
2022-08-07T02:28:24.563Z,102190.91
2022-08-07T02:30:57.792Z,102193.53
2022-08-07T02:33:42.038Z,102193.53
2022-08-07T02:36:30.916Z,102199.66
2022-08-07T02:39:16.413Z,102195.28
2022-08-07T02:41:56.519Z,102193.59
2022-08-07T02:44:34.660Z,102190.97
2022-08-07T02:47:07.099Z,102199.72
2022-08-07T02:49:57.628Z,102198.00
2022-08-07T02:52:34.979Z,102194.53
2022-08-07T02:55:15.448Z,102189.28
2022-08-07T02:58:03.275Z,102193.66
2022-08-07T03:00:35.929Z,102186.66
2022-08-07T03:03:13.345Z,102189.28
2022-08-07T03:05:45.113Z,102185.78
2022-08-07T03:08:18.227Z,102184.94
2022-08-07T03:10:58.159Z,102186.69
2022-08-07T03:13:29.466Z,102182.31
2022-08-07T03:16:09.983Z,102172.72
2022-08-07T03:18:43.995Z,102182.31
2022-08-07T03:21:18.964Z,102170.97
2022-08-07T03:24:21.080Z,102179.72
2022-08-07T03:26:57.913Z,102184.97
2022-08-07T03:29:46.078Z,102179.72
2022-08-07T03:32:23.853Z,102185.84
2022-08-07T03:35:16.624Z,102184.97
2022-08-07T03:37:55.336Z,102191.09
2022-08-07T03:40:30.747Z,102181.50
2022-08-07T03:43:13.696Z,102183.25
2022-08-07T03:45:47.618Z,102183.22
2022-08-07T03:48:19.161Z,102186.72
2022-08-07T03:50:56.250Z,102195.50
2022-08-07T03:54:00.691Z,102182.34
2022-08-07T03:56:32.646Z,102198.09
2022-08-07T03:59:09.898Z,102195.47
2022-08-07T04:01:45.427Z,102197.22
2022-08-07T04:04:17.925Z,102198.09
2022-08-07T04:06:50.693Z,102197.22
2022-08-07T04:09:23.209Z,102194.59
2022-08-07T04:12:25.208Z,102201.56
2022-08-07T04:14:49.001Z,102202.44
2022-08-07T04:17:21.875Z,102194.56
2022-08-07T04:19:54.992Z,102209.41
2022-08-07T04:22:27.513Z,102198.91
2022-08-07T04:25:01.396Z,102209.38
2022-08-07T04:27:35.530Z,102209.38
2022-08-07T04:30:35.649Z,102203.25
2022-08-07T04:33:10.404Z,102213.72
2022-08-07T04:35:50.429Z,102214.53
2022-08-07T04:38:25.378Z,102213.66
2022-08-07T04:40:57.017Z,102205.81
2022-08-07T04:44:12.689Z,102208.41
2022-08-07T04:46:40.039Z,102211.00
2022-08-07T04:50:08.038Z,102220.59
2022-08-07T04:52:57.651Z,102214.47
2022-08-07T04:58:13.161Z,102225.84
2022-08-07T04:59:18.289Z,102231.09
2022-08-07T05:02:11.229Z,102231.97
2022-08-07T05:05:11.584Z,102227.59
2022-08-07T05:08:59.390Z,102230.19
2022-08-07T05:11:58.951Z,102237.22
2022-08-07T05:14:55.290Z,102239.81
2022-08-07T05:17:52.262Z,102232.78
2022-08-07T05:20:27.219Z,102245.84
2022-08-07T05:23:02.012Z,102242.28
2022-08-07T05:25:36.779Z,102236.94
2022-08-07T05:28:27.523Z,102249.97
2022-08-07T05:30:59.876Z,102249.88
2022-08-07T05:33:35.482Z,102243.75
2022-08-07T05:36:12.168Z,102221.03
2022-08-07T05:39:01.140Z,102240.19
2022-08-07T05:42:02.686Z,102249.75
2022-08-07T05:44:37.922Z,102241.81
2022-08-07T05:47:38.646Z,102247.09
2022-08-07T05:50:10.828Z,102242.72
2022-08-07T05:52:42.274Z,102227.06
2022-08-07T05:55:12.519Z,102248.00
2022-08-07T05:57:46.608Z,102251.47
2022-08-07T06:00:18.096Z,102250.69
2022-08-07T06:02:50.849Z,102252.44
2022-08-07T06:05:25.753Z,102251.53
2022-08-07T06:08:13.169Z,102247.13
2022-08-07T06:10:51.267Z,102252.31
2022-08-07T06:14:10.349Z,102260.09
2022-08-07T06:16:16.527Z,102246.03
2022-08-07T06:18:51.881Z,102257.34
2022-08-07T06:22:15.203Z,102260.78
2022-08-07T06:24:38.180Z,102255.41
2022-08-07T06:27:07.867Z,102251.84
2022-08-07T06:29:39.012Z,102261.47
2022-08-07T06:32:09.372Z,102267.59
2022-08-07T06:34:45.258Z,102270.19
2022-08-07T06:37:17.074Z,102270.13
2022-08-07T06:40:13.237Z,102268.38
2022-08-07T06:42:39.990Z,102267.41
2022-08-07T06:45:18.358Z,102270.78
2022-08-07T06:47:58.790Z,102275.13
2022-08-07T06:50:31.598Z,102266.31
2022-08-07T06:53:04.171Z,102270.66
2022-08-07T06:55:53.869Z,102271.47
2022-08-07T06:58:28.808Z,102270.53
2022-08-07T07:01:00.354Z,102267.91
2022-08-07T07:03:49.089Z,102258.22
2022-08-07T07:06:23.848Z,102266.03
2022-08-07T07:08:58.076Z,102269.59
2022-08-07T07:12:07.790Z,102265.97
2022-08-07T07:14:22.306Z,102264.06
2022-08-07T07:16:56.643Z,102271.03
2022-08-07T07:19:55.631Z,102269.13
2022-08-07T07:22:36.364Z,102255.00
2022-08-07T07:26:35.523Z,102267.06
2022-08-07T07:28:29.874Z,102260.88
2022-08-07T07:31:21.643Z,102269.44
2022-08-07T07:33:57.847Z,102266.59
2022-08-07T07:36:29.673Z,102266.31
2022-08-07T07:39:04.690Z,102269.56
2022-08-07T07:42:08.628Z,102251.75
2022-08-07T07:44:29.256Z,102267.41
2022-08-07T07:47:13.985Z,102271.75
2022-08-07T07:50:33.819Z,102265.59
2022-08-07T07:52:41.412Z,102258.44
2022-08-07T07:55:13.310Z,102265.31
2022-08-07T07:57:53.217Z,102253.41
2022-08-07T08:00:29.555Z,102260.69
2022-08-07T08:03:08.678Z,102260.16
2022-08-07T08:05:51.121Z,102267.75
2022-08-07T08:08:34.463Z,102280.09
2022-08-07T08:11:16.401Z,102274.13
2022-08-07T08:13:53.100Z,102261.19
2022-08-07T08:16:31.399Z,102268.91
2022-08-07T08:19:09.644Z,102268.69
2022-08-07T08:22:09.855Z,102272.09
2022-08-07T08:25:09.378Z,102270.28
2022-08-07T08:27:56.929Z,102271.16
2022-08-07T08:30:34.599Z,102269.47
2022-08-07T08:33:10.450Z,102272.06
2022-08-07T08:35:50.024Z,102275.53
2022-08-07T08:38:29.224Z,102267.59
2022-08-07T08:41:31.439Z,102275.31
2022-08-07T08:44:54.519Z,102282.66
2022-08-07T08:47:52.691Z,102280.38
2022-08-07T08:50:39.091Z,102273.47
2022-08-07T08:53:29.431Z,102277.03
2022-08-07T08:56:04.734Z,102267.22
2022-08-07T08:58:58.028Z,102269.72
2022-08-07T09:01:44.159Z,102267.66
2022-08-07T09:04:33.813Z,102270.88
2022-08-07T09:07:12.112Z,102260.06
2022-08-07T09:09:56.899Z,102271.16
2022-08-07T09:12:53.735Z,102264.19
2022-08-07T09:16:22.202Z,102267.00
2022-08-07T09:18:35.418Z,102267.88
2022-08-07T09:21:33.822Z,102259.25
2022-08-07T09:24:32.971Z,102259.97
2022-08-07T09:27:21.067Z,102265.13
2022-08-07T09:30:03.183Z,102268.53
2022-08-07T09:32:51.149Z,102261.34
2022-08-07T09:36:02.649Z,102257.81
2022-08-07T09:38:53.720Z,102259.50
2022-08-07T09:41:36.208Z,102261.88
2022-08-07T09:44:46.529Z,102253.81
2022-08-07T09:48:00.341Z,102258.16
2022-08-07T09:50:59.519Z,102255.50
2022-08-07T09:53:40.847Z,102251.69
2022-08-07T09:56:43.309Z,102253.22
2022-08-07T09:59:46.197Z,102250.13
2022-08-07T10:02:40.288Z,102237.28
2022-08-07T10:06:00.292Z,102245.59
2022-08-07T10:09:05.594Z,102239.06
2022-08-07T10:12:02.287Z,102242.22
2022-08-07T10:15:00.651Z,102244.47
2022-08-07T10:18:04.296Z,102241.66
2022-08-07T10:21:20.018Z,102223.50
2022-08-07T10:24:21.642Z,102228.97
2022-08-07T10:27:13.354Z,102229.22
2022-08-07T10:30:13.001Z,102225.16
2022-08-07T10:33:19.816Z,102231.28
2022-08-07T10:36:29.673Z,102231.53
2022-08-07T10:39:41.263Z,102226.28
2022-08-07T10:42:21.160Z,102239.94
2022-08-07T10:45:48.016Z,102225.63
2022-08-07T10:48:41.207Z,102211.75
2022-08-07T10:51:57.359Z,102225.53
2022-08-07T10:54:37.204Z,102225.03
2022-08-07T10:57:34.484Z,102227.31
2022-08-07T11:00:09.758Z,102223.69
2022-08-07T11:03:11.359Z,102218.94
2022-08-07T11:05:50.853Z,102221.16
2022-08-07T11:08:53.106Z,102219.00
2022-08-07T11:11:35.661Z,102227.38
2022-08-07T11:14:45.196Z,102216.22
2022-08-07T11:17:43.327Z,102214.63
2022-08-07T11:20:42.003Z,102210.91
2022-08-07T11:23:36.586Z,102210.44
2022-08-07T11:26:17.761Z,102201.78
2022-08-07T11:28:57.055Z,102192.84
2022-08-07T11:31:37.569Z,102203.09
2022-08-07T11:34:45.019Z,102203.66
2022-08-07T11:37:57.756Z,102205.41
2022-08-07T11:40:57.169Z,102202.31
2022-08-07T11:43:54.925Z,102202.41
2022-08-07T11:46:40.519Z,102199.75
2022-08-07T11:49:51.171Z,102201.81
2022-08-07T11:52:39.727Z,102201.28
2022-08-07T11:55:18.879Z,102206.75
2022-08-07T11:58:39.516Z,102203.34
2022-08-07T12:02:00.605Z,102202.59
2022-08-07T12:04:39.239Z,102200.25
2022-08-07T12:07:20.310Z,102201.28
2022-08-07T12:10:05.545Z,102201.06
2022-08-07T12:12:41.400Z,102197.13
2022-08-07T12:15:46.025Z,102205.59
2022-08-07T12:18:31.003Z,102196.69
2022-08-07T12:21:56.063Z,102195.59
2022-08-07T12:24:37.813Z,102197.00
2022-08-07T12:27:16.203Z,102180.47
2022-08-07T12:29:53.933Z,102188.09
2022-08-07T12:33:19.099Z,102183.81
2022-08-07T12:35:58.171Z,102182.72
2022-08-07T12:38:38.664Z,102173.97
2022-08-07T12:41:14.637Z,102170.66
2022-08-07T12:44:02.069Z,102177.13
2022-08-07T12:47:03.146Z,102181.81
2022-08-07T12:50:04.913Z,102174.38
2022-08-07T12:53:17.866Z,102179.34
2022-08-07T12:56:16.974Z,102188.75
2022-08-07T12:58:57.217Z,102175.69
2022-08-07T13:02:09.818Z,102183.13
2022-08-07T13:05:01.789Z,102185.69
2022-08-07T13:08:13.683Z,102183.22
2022-08-07T13:10:57.307Z,102171.63
2022-08-07T13:13:47.900Z,102172.63
2022-08-07T13:16:51.007Z,102175.25
2022-08-07T13:19:50.658Z,102163.78
2022-08-07T13:22:32.407Z,102164.06
2022-08-07T13:25:29.864Z,102160.84
2022-08-07T13:28:13.426Z,102152.13
2022-08-07T13:31:01.419Z,102155.16
2022-08-07T13:34:33.179Z,102150.41
2022-08-07T13:37:20.697Z,102153.34
2022-08-07T13:40:36.188Z,102154.59
2022-08-07T13:43:15.458Z,102149.16
2022-08-07T13:46:21.798Z,102151.69
2022-08-07T13:48:40.758Z,102149.88
2022-08-07T13:51:27.207Z,102161.00
2022-08-07T13:54:03.697Z,102149.03
2022-08-07T13:56:41.313Z,102152.13
2022-08-07T13:59:27.798Z,102157.97
2022-08-07T14:02:10.744Z,102147.97
2022-08-07T14:04:54.336Z,102118.66
2022-08-07T14:07:30.771Z,102153.41
2022-08-07T14:10:17.388Z,102148.81
2022-08-07T14:13:10.577Z,102154.84
2022-08-07T14:15:50.552Z,102150.47
2022-08-07T14:18:33.065Z,102145.72
2022-08-07T14:22:02.082Z,102138.38
2022-08-07T14:24:27.444Z,102148.44
2022-08-07T14:27:02.617Z,102150.56
2022-08-07T14:30:05.164Z,102141.38
2022-08-07T14:32:45.780Z,102142.59
2022-08-07T14:35:43.407Z,102133.28
2022-08-07T14:38:26.771Z,102116.44
2022-08-07T14:44:11.597Z,102116.06
2022-08-07T14:49:56.686Z,102124.56
2022-08-07T14:52:28.726Z,102107.28
2022-08-07T14:55:01.323Z,102127.56
2022-08-07T15:00:31.161Z,102117.91
2022-08-07T15:03:16.503Z,102113.25
2022-08-07T15:12:01.949Z,102118.75
2022-08-07T15:17:55.108Z,102124.16
2022-08-07T15:20:54.743Z,102113.72
2022-08-07T15:25:12.791Z,102112.28
2022-08-07T15:26:28.779Z,102117.56
2022-08-07T15:32:00.657Z,102108.19
2022-08-07T15:34:37.986Z,102111.59
2022-08-07T15:40:34.859Z,102117.41
2022-08-07T15:43:53.154Z,102107.19
2022-08-07T15:46:32.370Z,102107.38
2022-08-07T15:49:14.544Z,102109.56
2022-08-07T15:54:39.601Z,102099.75
2022-08-07T15:57:28.150Z,102105.94
2022-08-07T16:00:06.894Z,102106.06
2022-08-07T16:02:46.738Z,102092.00
2022-08-07T16:05:23.158Z,102101.00
2022-08-07T16:08:31.125Z,102076.88
2022-08-07T16:11:29.039Z,102103.72
2022-08-07T16:14:36.137Z,102109.72
2022-08-07T16:18:02.215Z,102105.81
2022-08-07T16:20:33.506Z,102111.28
2022-08-07T16:24:00.890Z,102106.13
2022-08-07T16:26:59.307Z,102095.78
2022-08-07T16:30:29.509Z,102104.06
2022-08-07T16:34:01.803Z,102092.78
2022-08-07T16:36:31.385Z,102099.44
2022-08-07T16:39:33.720Z,102109.22
2022-08-07T16:42:18.501Z,102098.03
2022-08-07T16:48:09.821Z,102096.22
2022-08-07T16:51:07.318Z,102094.19
2022-08-07T16:54:19.147Z,102095.47
2022-08-07T16:57:03.848Z,102092.44
2022-08-07T16:59:46.141Z,102092.81
2022-08-07T17:02:51.260Z,102094.22
2022-08-07T17:06:02.168Z,102100.34
2022-08-07T17:09:08.650Z,102095.38
2022-08-07T17:12:01.992Z,102108.72
2022-08-07T17:14:50.945Z,102116.28
2022-08-07T17:17:26.999Z,102115.75
2022-08-07T17:20:31.001Z,102110.50
2022-08-07T17:23:54.579Z,102107.25
2022-08-07T17:26:49.745Z,102106.63
2022-08-07T17:30:14.245Z,102105.66
2022-08-07T17:32:30.627Z,102108.25
2022-08-07T17:35:50.341Z,102114.78
2022-08-07T17:38:33.264Z,102116.16
2022-08-07T17:42:01.121Z,102113.22
2022-08-07T17:44:14.189Z,102101.56
2022-08-07T17:46:53.228Z,102114.69
2022-08-07T17:49:44.981Z,102111.47
2022-08-07T17:52:41.402Z,102111.47
2022-08-07T17:55:55.782Z,102094.31
2022-08-07T17:58:30.043Z,102098.50
2022-08-07T18:01:20.593Z,102108.41
2022-08-07T18:04:41.601Z,102111.69
2022-08-07T18:07:43.595Z,102105.44
2022-08-07T18:10:32.162Z,102112.03
2022-08-07T18:13:17.718Z,102113.47
2022-08-07T18:16:08.411Z,102103.44
2022-08-07T18:21:08.441Z,102120.47
2022-08-07T18:21:58.537Z,102120.03
2022-08-07T18:24:42.281Z,102113.50
2022-08-07T18:27:38.740Z,102123.38
2022-08-07T18:33:56.004Z,102127.56
2022-08-07T18:36:53.990Z,102133.13
2022-08-07T18:40:08.271Z,102116.91
2022-08-07T18:43:06.510Z,102137.34
2022-08-07T18:46:24.567Z,102141.94
2022-08-07T18:50:31.210Z,102146.53
2022-08-07T18:52:38.676Z,102149.41
2022-08-07T18:55:42.964Z,102160.94
2022-08-07T18:58:25.803Z,102162.13
2022-08-07T19:01:05.914Z,102157.88
2022-08-07T19:04:02.208Z,102159.84
2022-08-07T19:06:51.387Z,102166.13
2022-08-07T19:09:57.245Z,102156.53
2022-08-07T19:12:57.834Z,102161.06
2022-08-07T19:16:05.503Z,102170.84
2022-08-07T19:18:58.682Z,102171.78
2022-08-07T19:21:58.532Z,102171.84
2022-08-07T19:24:50.680Z,102175.38
2022-08-07T19:28:29.326Z,102176.25
2022-08-07T19:31:05.817Z,102157.19
2022-08-07T19:33:13.221Z,102178.03
2022-08-07T19:35:53.709Z,102178.03
2022-08-07T19:38:28.099Z,102171.88
2022-08-07T19:41:02.792Z,102176.25
2022-08-07T19:43:50.096Z,102176.31
2022-08-07T19:46:29.010Z,102176.25
2022-08-07T19:49:02.684Z,102173.50
2022-08-07T19:51:52.392Z,102177.19
2022-08-07T19:54:33.180Z,102186.13
2022-08-07T19:57:59.757Z,102173.06
2022-08-07T20:00:28.385Z,102183.66
2022-08-07T20:03:33.826Z,102175.72
2022-08-07T20:06:02.235Z,102172.38
2022-08-07T20:08:34.366Z,102182.00
2022-08-07T20:11:14.981Z,102183.13
2022-08-07T20:13:55.289Z,102181.66
2022-08-07T20:16:36.188Z,102188.69
2022-08-07T20:19:11.008Z,102188.78
2022-08-07T20:21:47.680Z,102188.91
2022-08-07T20:24:23.294Z,102191.63
2022-08-07T20:26:57.135Z,102179.41
2022-08-07T20:29:47.752Z,102187.31
2022-08-07T20:32:26.537Z,102183.03
2022-08-07T20:35:26.095Z,102184.06
2022-08-07T20:37:59.533Z,102170.31
2022-08-07T20:40:34.502Z,102198.34
2022-08-07T20:43:14.470Z,102191.38
2022-08-07T20:46:27.011Z,102195.88
2022-08-07T20:48:58.141Z,102203.00
2022-08-07T20:51:50.394Z,102194.31
2022-08-07T20:54:29.812Z,102204.94
2022-08-07T20:57:08.218Z,102204.19
2022-08-07T21:00:07.625Z,102197.31
2022-08-07T21:02:55.479Z,102201.72
2022-08-07T21:05:56.136Z,102205.16
2022-08-07T21:08:44.654Z,102211.34
2022-08-07T21:11:29.022Z,102205.25
2022-08-07T21:14:33.434Z,102203.44
2022-08-07T21:18:20.584Z,102190.50
2022-08-07T21:20:06.131Z,102181.94
2022-08-07T21:22:53.369Z,102205.53
2022-08-07T21:25:29.813Z,102200.31
2022-08-07T21:28:49.529Z,102190.66
2022-08-07T21:32:41.990Z,102198.53
2022-08-07T21:34:46.316Z,102195.13
2022-08-07T21:37:59.658Z,102196.97
2022-08-07T21:41:09.918Z,102197.91
2022-08-07T21:44:14.318Z,102203.25
2022-08-07T21:47:36.276Z,102199.75
2022-08-07T21:50:14.588Z,102187.53
2022-08-07T21:53:18.116Z,102192.00
2022-08-07T21:55:59.590Z,102195.50
2022-08-07T21:59:04.219Z,102185.97
2022-08-07T22:02:10.864Z,102192.94
2022-08-07T22:04:53.914Z,102194.69
2022-08-07T22:07:31.652Z,102192.94
2022-08-07T22:10:24.911Z,102196.47
2022-08-07T22:13:03.394Z,102191.19
2022-08-07T22:16:43.509Z,102192.94
2022-08-07T22:18:47.554Z,102205.19
2022-08-07T22:22:04.680Z,102189.44
2022-08-07T22:24:32.705Z,102196.38
2022-08-07T22:27:34.113Z,102203.44
2022-08-07T22:30:17.188Z,102196.47
2022-08-07T22:33:02.618Z,102200.81
2022-08-07T22:35:43.995Z,102202.56
2022-08-07T22:38:28.573Z,102199.09
2022-08-07T22:41:07.521Z,102192.16
2022-08-07T22:43:52.151Z,102192.16
2022-08-07T22:47:05.917Z,102191.31
2022-08-07T22:50:06.981Z,102184.28
2022-08-07T22:52:51.494Z,102180.88
2022-08-07T22:55:48.254Z,102158.28
2022-08-07T22:58:42.978Z,102182.72
2022-08-07T23:01:49.476Z,102186.31
2022-08-07T23:04:57.757Z,102188.09
2022-08-07T23:08:22.286Z,102181.09
2022-08-07T23:11:27.358Z,102187.22
2022-08-07T23:14:41.929Z,102161.00
2022-08-07T23:17:35.850Z,102172.41
2022-08-07T23:20:51.332Z,102176.75
2022-08-07T23:24:05.855Z,102181.09
2022-08-07T23:27:02.632Z,102184.59
2022-08-07T23:30:35.622Z,102173.34
2022-08-07T23:34:34.105Z,102196.84
2022-08-07T23:36:29.248Z,102203.03
2022-08-07T23:39:22.196Z,102202.06
2022-08-07T23:42:21.588Z,102204.69
2022-08-07T23:45:03.693Z,102207.41
2022-08-07T23:48:04.723Z,102195.13
2022-08-07T23:50:57.107Z,102175.88
2022-08-07T23:53:49.768Z,102188.91
2022-08-07T23:57:03.467Z,102186.22
